createdAt,value
2018-07-21T00:01:06.477Z,89.90
2018-07-21T00:03:34.636Z,89.70
2018-07-21T00:06:02.754Z,90.20
2018-07-21T00:08:30.882Z,90.20
2018-07-21T00:10:58.982Z,90.00
2018-07-21T00:13:27.153Z,89.60
2018-07-21T00:15:55.265Z,89.30
2018-07-21T00:20:51.281Z,89.60
2018-07-21T00:23:19.406Z,88.90
2018-07-21T00:25:47.532Z,88.10
2018-07-21T00:28:15.639Z,87.70
2018-07-21T00:30:43.751Z,87.90
2018-07-21T00:33:11.853Z,87.50
2018-07-21T00:35:39.965Z,87.20
2018-07-21T00:38:08.092Z,87.10
2018-07-21T00:40:36.217Z,87.70
2018-07-21T00:43:04.349Z,87.50
2018-07-21T00:45:32.469Z,87.20
2018-07-21T00:48:00.682Z,86.70
2018-07-21T00:50:29.146Z,86.70
2018-07-21T00:52:57.263Z,87.00
2018-07-21T00:55:25.392Z,86.50
2018-07-21T00:57:53.599Z,86.70
2018-07-21T01:00:21.731Z,86.40
2018-07-21T01:02:49.851Z,86.60
2018-07-21T01:05:18.161Z,87.00
2018-07-21T01:07:46.303Z,86.80
2018-07-21T01:12:49.001Z,86.70
2018-07-21T01:15:17.163Z,86.40
2018-07-21T01:17:45.285Z,86.80
2018-07-21T01:20:13.441Z,86.80
2018-07-21T01:22:42.359Z,86.80
2018-07-21T01:25:10.462Z,86.60
2018-07-21T01:27:38.553Z,86.40
2018-07-21T01:30:07.157Z,86.50
2018-07-21T01:32:35.311Z,86.20
2018-07-21T01:35:03.420Z,86.30
2018-07-21T01:37:31.515Z,86.40
2018-07-21T01:39:59.695Z,86.60
2018-07-21T01:42:27.822Z,86.80
2018-07-21T01:44:55.916Z,86.60
2018-07-21T01:47:24.024Z,86.70
2018-07-21T01:49:52.128Z,86.50
2018-07-21T01:52:20.253Z,86.80
2018-07-21T01:54:48.346Z,86.40
2018-07-21T01:57:16.439Z,86.50
2018-07-21T01:59:44.550Z,86.50
2018-07-21T02:02:12.660Z,86.90
2018-07-21T02:04:40.759Z,86.80
2018-07-21T02:07:08.899Z,87.10
2018-07-21T02:09:37.006Z,87.00
2018-07-21T02:12:05.098Z,87.00
2018-07-21T02:14:33.217Z,87.20
2018-07-21T02:17:01.326Z,87.30
2018-07-21T02:19:29.428Z,87.40
2018-07-21T02:21:57.548Z,87.70
2018-07-21T02:24:25.671Z,87.70
2018-07-21T02:26:53.758Z,87.50
2018-07-21T02:29:21.860Z,87.80
2018-07-21T02:31:49.978Z,88.60
2018-07-21T02:34:18.129Z,88.00
2018-07-21T02:36:46.233Z,88.10
2018-07-21T02:39:14.387Z,88.10
2018-07-21T02:41:42.505Z,88.10
2018-07-21T02:44:10.602Z,88.30
2018-07-21T02:46:38.722Z,88.50
2018-07-21T02:49:06.820Z,88.80
2018-07-21T02:51:34.913Z,89.00
2018-07-21T02:54:03.271Z,89.00
2018-07-21T02:56:31.379Z,89.60
2018-07-21T02:58:59.560Z,89.50
2018-07-21T03:01:27.833Z,89.30
2018-07-21T03:03:56.022Z,89.10
2018-07-21T03:06:24.127Z,89.30
2018-07-21T03:08:52.230Z,89.80
2018-07-21T03:11:20.340Z,90.00
2018-07-21T03:13:48.473Z,89.70
2018-07-21T03:16:16.584Z,89.70
2018-07-21T03:18:44.707Z,90.00
2018-07-21T03:21:12.816Z,90.00
2018-07-21T03:23:40.924Z,90.20
2018-07-21T03:26:09.126Z,90.10
2018-07-21T03:28:37.246Z,90.20
2018-07-21T03:31:05.373Z,90.30
2018-07-21T03:33:33.465Z,90.20
2018-07-21T03:36:01.631Z,90.40
2018-07-21T03:38:29.734Z,90.60
2018-07-21T03:40:57.870Z,90.70
2018-07-21T03:43:25.976Z,90.80
2018-07-21T03:45:54.191Z,91.10
2018-07-21T03:48:22.304Z,91.20
2018-07-21T03:50:50.424Z,91.10
2018-07-21T03:53:18.538Z,91.20
2018-07-21T03:55:46.661Z,91.20
2018-07-21T03:58:14.772Z,91.40
2018-07-21T04:00:42.918Z,91.30
2018-07-21T04:03:11.014Z,91.20
2018-07-21T04:05:39.136Z,91.20
2018-07-21T04:08:07.254Z,91.30
2018-07-21T04:10:35.412Z,91.00
2018-07-21T04:13:03.527Z,91.00
2018-07-21T04:15:31.687Z,90.60
2018-07-21T04:17:59.799Z,90.70
2018-07-21T04:20:27.919Z,90.70
2018-07-21T04:22:56.038Z,90.60
2018-07-21T04:25:24.160Z,90.50
2018-07-21T04:27:52.355Z,90.50
2018-07-21T04:30:20.457Z,90.20
2018-07-21T04:32:48.579Z,90.30
2018-07-21T04:35:16.688Z,90.20
2018-07-21T04:37:44.769Z,90.40
2018-07-21T04:40:12.899Z,90.50
2018-07-21T04:42:40.992Z,90.40
2018-07-21T04:45:09.102Z,90.20
2018-07-21T04:47:37.197Z,90.10
2018-07-21T04:50:05.304Z,90.50
2018-07-21T04:52:33.415Z,90.20
2018-07-21T04:55:01.620Z,90.10
2018-07-21T04:57:29.710Z,90.20
2018-07-21T04:59:57.792Z,89.70
2018-07-21T05:02:25.882Z,90.40
2018-07-21T05:04:54.009Z,90.40
2018-07-21T05:07:22.197Z,89.80
2018-07-21T05:09:50.276Z,89.50
2018-07-21T05:12:18.379Z,89.20
2018-07-21T05:14:46.479Z,89.70
2018-07-21T05:17:14.594Z,89.70
2018-07-21T05:19:42.688Z,89.00
2018-07-21T05:22:10.807Z,88.90
2018-07-21T05:24:38.916Z,89.20
2018-07-21T05:27:07.010Z,89.50
2018-07-21T05:29:35.119Z,89.30
2018-07-21T05:32:03.310Z,90.10
2018-07-21T05:34:31.412Z,88.90
2018-07-21T05:36:59.574Z,90.00
2018-07-21T05:39:27.658Z,90.00
2018-07-21T05:41:55.797Z,88.90
2018-07-21T05:44:23.877Z,89.00
2018-07-21T05:46:52.016Z,89.10
2018-07-21T05:49:20.110Z,88.60
2018-07-21T05:51:48.259Z,87.90
2018-07-21T05:54:16.367Z,86.70
2018-07-21T05:56:44.470Z,86.60
2018-07-21T05:59:12.576Z,86.90
2018-07-21T06:01:40.675Z,84.20
2018-07-21T06:04:09.064Z,84.20
2018-07-21T06:06:37.314Z,83.90
2018-07-21T06:09:07.237Z,84.30
2018-07-21T06:11:35.347Z,85.00
2018-07-21T06:14:03.523Z,84.60
2018-07-21T06:16:31.630Z,84.10
2018-07-21T06:18:59.794Z,82.90
2018-07-21T06:21:27.923Z,82.60
2018-07-21T06:26:30.825Z,81.50
2018-07-21T06:28:58.985Z,80.90
2018-07-21T06:31:27.078Z,80.70
2018-07-21T06:33:55.192Z,81.00
2018-07-21T06:36:23.539Z,80.10
2018-07-21T06:38:51.646Z,80.00
2018-07-21T06:41:19.759Z,80.80
2018-07-21T06:43:47.904Z,79.60
2018-07-21T06:46:16.060Z,79.10
2018-07-21T06:48:44.184Z,79.00
2018-07-21T06:51:12.343Z,78.30
2018-07-21T06:53:40.481Z,79.00
2018-07-21T06:56:08.584Z,78.10
2018-07-21T06:58:36.722Z,79.40
2018-07-21T07:01:04.865Z,78.10
2018-07-21T07:03:33.016Z,78.30
2018-07-21T07:06:01.210Z,78.40
2018-07-21T07:08:29.339Z,77.60
2018-07-21T07:10:57.476Z,76.40
2018-07-21T07:13:25.596Z,76.80
2018-07-21T07:15:53.728Z,76.60
2018-07-21T07:18:21.848Z,76.30
2018-07-21T07:20:50.026Z,76.30
2018-07-21T07:23:18.159Z,76.20
2018-07-21T07:25:46.277Z,77.60
2018-07-21T07:28:14.401Z,78.50
2018-07-21T07:30:43.889Z,75.90
2018-07-21T07:33:12.084Z,76.40
2018-07-21T07:35:41.346Z,76.20
2018-07-21T07:38:09.484Z,76.20
2018-07-21T07:40:37.617Z,74.50
2018-07-21T07:43:06.150Z,75.20
2018-07-21T07:45:34.261Z,74.70
2018-07-21T07:48:02.379Z,74.10
2018-07-21T07:50:30.541Z,75.00
2018-07-21T07:52:58.914Z,73.90
2018-07-21T07:55:31.598Z,73.20
2018-07-21T07:58:00.502Z,73.00
2018-07-21T08:00:29.003Z,72.30
2018-07-21T08:02:57.182Z,72.10
2018-07-21T08:05:25.284Z,72.60
2018-07-21T08:07:53.430Z,72.90
2018-07-21T08:10:21.537Z,70.80
2018-07-21T08:12:50.476Z,71.80
2018-07-21T08:15:19.050Z,70.60
2018-07-21T08:17:47.152Z,70.40
2018-07-21T08:20:15.371Z,71.40
2018-07-21T08:22:43.471Z,70.40
2018-07-21T08:25:11.681Z,70.10
2018-07-21T08:27:40.132Z,69.50
2018-07-21T08:30:09.734Z,69.10
2018-07-21T08:32:37.975Z,69.00
2018-07-21T08:35:06.599Z,68.70
2018-07-21T08:37:35.612Z,68.50
2018-07-21T08:40:04.337Z,68.40
2018-07-21T08:42:32.536Z,66.90
2018-07-21T08:45:00.827Z,67.50
2018-07-21T08:47:28.950Z,67.50
2018-07-21T08:49:57.146Z,68.10
2018-07-21T08:52:25.185Z,66.00
2018-07-21T08:57:25.221Z,66.20
2018-07-21T08:59:53.317Z,65.90
2018-07-21T09:02:21.468Z,65.50
2018-07-21T09:04:49.659Z,66.40
2018-07-21T09:07:18.467Z,66.60
2018-07-21T09:09:46.552Z,66.90
2018-07-21T09:12:14.686Z,66.10
2018-07-21T09:14:42.803Z,65.70
2018-07-21T09:17:10.964Z,65.70
2018-07-21T09:19:39.079Z,66.30
2018-07-21T09:22:07.201Z,65.70
2018-07-21T09:24:35.324Z,67.60
2018-07-21T09:27:03.458Z,65.90
2018-07-21T09:29:31.920Z,67.80
2018-07-21T09:32:00.228Z,65.00
2018-07-21T09:34:28.425Z,64.50
2018-07-21T09:36:56.543Z,64.90
2018-07-21T09:41:52.551Z,65.20
2018-07-21T09:44:20.692Z,64.50
2018-07-21T09:46:48.874Z,64.00
2018-07-21T09:49:17.093Z,65.00
2018-07-21T09:51:45.478Z,64.50
2018-07-21T09:54:13.590Z,64.90
2018-07-21T09:56:41.694Z,63.80
2018-07-21T09:59:09.834Z,64.70
2018-07-21T10:01:37.963Z,65.20
2018-07-21T10:04:06.089Z,65.10
2018-07-21T10:06:34.203Z,63.20
2018-07-21T10:09:02.327Z,63.50
2018-07-21T10:11:30.489Z,63.30
2018-07-21T10:16:26.483Z,63.50
2018-07-21T10:18:54.604Z,62.50
2018-07-21T10:21:22.716Z,63.20
2018-07-21T10:23:50.923Z,62.60
2018-07-21T10:26:24.558Z,62.00
2018-07-21T10:28:58.329Z,62.90
2018-07-21T10:31:26.489Z,62.00
2018-07-21T10:33:54.608Z,61.60
2018-07-21T10:36:22.706Z,61.10
2018-07-21T10:38:58.999Z,61.00
2018-07-21T10:41:27.224Z,61.50
2018-07-21T10:43:55.339Z,61.70
2018-07-21T10:46:23.450Z,62.90
2018-07-21T10:48:51.771Z,61.70
2018-07-21T10:51:19.873Z,62.40
2018-07-21T10:53:47.999Z,61.60
2018-07-21T10:56:16.105Z,61.80
2018-07-21T10:58:44.244Z,61.70
2018-07-21T11:01:12.343Z,61.90
2018-07-21T11:03:40.455Z,61.30
2018-07-21T11:06:08.606Z,61.30
2018-07-21T11:08:36.729Z,61.80
2018-07-21T11:11:04.860Z,61.30
2018-07-21T11:13:33.014Z,62.00
2018-07-21T11:16:01.163Z,63.10
2018-07-21T11:18:29.297Z,63.80
2018-07-21T11:20:57.411Z,62.50
2018-07-21T11:23:25.758Z,61.90
2018-07-21T11:25:53.883Z,60.70
2018-07-21T11:28:21.990Z,61.80
2018-07-21T11:30:50.224Z,61.10
2018-07-21T11:33:18.336Z,60.10
2018-07-21T11:35:46.670Z,60.00
2018-07-21T11:38:14.563Z,60.30
2018-07-21T11:40:42.706Z,61.00
2018-07-21T11:43:10.820Z,61.10
2018-07-21T11:45:39.027Z,61.80
2018-07-21T11:48:07.171Z,61.10
2018-07-21T11:50:35.317Z,60.80
2018-07-21T11:53:03.442Z,60.20
2018-07-21T11:55:31.565Z,60.00
2018-07-21T11:57:59.711Z,59.80
2018-07-21T12:00:27.871Z,59.60
2018-07-21T12:02:56.013Z,59.80
2018-07-21T12:05:24.282Z,60.30
2018-07-21T12:07:52.345Z,59.40
2018-07-21T12:10:20.484Z,59.40
2018-07-21T12:12:48.653Z,60.30
2018-07-21T12:15:16.785Z,59.30
2018-07-21T12:17:44.907Z,59.90
2018-07-21T12:20:13.139Z,60.50
2018-07-21T12:22:41.287Z,59.80
2018-07-21T12:25:09.407Z,61.10
2018-07-21T12:27:37.549Z,58.90
2018-07-21T12:30:05.650Z,59.00
2018-07-21T12:32:33.766Z,58.10
2018-07-21T12:35:02.012Z,58.90
2018-07-21T12:37:30.129Z,59.00
2018-07-21T12:39:58.300Z,59.40
2018-07-21T12:42:26.395Z,59.00
2018-07-21T12:44:54.614Z,59.60
2018-07-21T12:47:22.710Z,58.20
2018-07-21T12:49:50.844Z,59.80
2018-07-21T12:52:19.097Z,58.70
2018-07-21T12:54:47.218Z,58.20
2018-07-21T12:57:15.386Z,58.20
2018-07-21T12:59:43.590Z,59.70
2018-07-21T13:02:11.765Z,58.60
2018-07-21T13:04:40.007Z,59.20
2018-07-21T13:07:08.106Z,58.60
2018-07-21T13:09:36.305Z,59.20
2018-07-21T13:12:04.429Z,58.90
2018-07-21T13:14:32.620Z,59.60
2018-07-21T13:17:00.783Z,58.90
2018-07-21T13:19:29.188Z,59.30
2018-07-21T13:21:57.296Z,59.20
2018-07-21T13:24:25.416Z,60.10
2018-07-21T13:26:53.570Z,59.70
2018-07-21T13:29:21.742Z,59.70
2018-07-21T13:31:49.870Z,60.10
2018-07-21T13:34:17.988Z,60.80
2018-07-21T13:36:46.208Z,60.30
2018-07-21T13:39:14.319Z,62.00
2018-07-21T13:41:42.443Z,61.90
2018-07-21T13:44:10.627Z,61.10
2018-07-21T13:46:38.727Z,60.20
2018-07-21T13:49:06.900Z,61.80
2018-07-21T13:51:35.000Z,61.30
2018-07-21T13:54:03.176Z,60.50
2018-07-21T13:56:31.727Z,60.40
2018-07-21T13:59:00.252Z,60.60
2018-07-21T14:01:28.432Z,60.90
2018-07-21T14:03:56.616Z,61.10
2018-07-21T14:06:24.756Z,61.70
2018-07-21T14:08:52.867Z,61.10
2018-07-21T14:11:21.087Z,62.20
2018-07-21T14:13:49.267Z,61.60
2018-07-21T14:16:17.390Z,61.30
2018-07-21T14:18:45.487Z,61.80
2018-07-21T14:21:13.618Z,62.30
2018-07-21T14:23:41.792Z,62.50
2018-07-21T14:26:09.963Z,61.80
2018-07-21T14:28:38.097Z,63.30
2018-07-21T14:31:06.273Z,63.80
2018-07-21T14:33:34.398Z,62.30
2018-07-21T14:36:02.693Z,62.10
2018-07-21T14:38:30.950Z,61.60
2018-07-21T14:40:59.086Z,62.00
2018-07-21T14:43:27.212Z,62.00
2018-07-21T14:45:55.343Z,62.00
2018-07-21T14:48:23.452Z,62.50
2018-07-21T14:50:51.538Z,62.70
2018-07-21T14:53:19.702Z,63.30
2018-07-21T14:55:47.859Z,63.60
2018-07-21T14:58:15.987Z,63.70
2018-07-21T15:00:44.164Z,64.20
2018-07-21T15:03:12.378Z,64.70
2018-07-21T15:05:40.478Z,64.90
2018-07-21T15:08:08.592Z,65.80
2018-07-21T15:10:36.698Z,66.60
2018-07-21T15:13:04.947Z,66.90
2018-07-21T15:15:33.047Z,67.50
2018-07-21T15:18:01.182Z,68.10
2018-07-21T15:20:29.376Z,69.00
2018-07-21T15:22:57.606Z,68.90
2018-07-21T15:25:25.726Z,68.80
2018-07-21T15:27:54.004Z,68.80
2018-07-21T15:30:22.180Z,69.50
2018-07-21T15:32:50.298Z,68.90
2018-07-21T15:35:18.409Z,69.50
2018-07-21T15:37:46.613Z,69.00
2018-07-21T15:40:14.793Z,69.20
2018-07-21T15:42:42.904Z,69.90
2018-07-21T15:45:10.998Z,70.90
2018-07-21T15:47:39.234Z,70.20
2018-07-21T15:50:07.361Z,70.90
2018-07-21T15:52:35.549Z,70.10
2018-07-21T15:55:03.740Z,70.40
2018-07-21T15:57:32.178Z,70.30
2018-07-21T16:00:00.325Z,70.40
2018-07-21T16:02:28.489Z,70.90
2018-07-21T16:04:56.556Z,70.60
2018-07-21T16:07:24.778Z,70.70
2018-07-21T16:09:52.942Z,70.20
2018-07-21T16:12:21.057Z,70.70
2018-07-21T16:14:49.284Z,71.00
2018-07-21T16:17:18.611Z,71.00
2018-07-21T16:19:51.947Z,71.20
2018-07-21T16:22:20.218Z,71.20
2018-07-21T16:24:48.650Z,71.00
2018-07-21T16:27:16.879Z,71.10
2018-07-21T16:29:44.982Z,71.60
2018-07-21T16:32:13.363Z,71.90
2018-07-21T16:34:42.583Z,71.90
2018-07-21T16:37:11.531Z,72.10
2018-07-21T16:39:40.110Z,72.60
2018-07-21T16:42:08.331Z,72.20
2018-07-21T16:44:36.478Z,72.20
2018-07-21T16:47:04.915Z,73.10
2018-07-21T16:49:33.037Z,73.00
2018-07-21T16:52:01.195Z,73.50
2018-07-21T16:54:29.341Z,74.30
2018-07-21T16:56:57.512Z,74.50
2018-07-21T16:59:25.634Z,73.60
2018-07-21T17:01:53.742Z,74.70
2018-07-21T17:04:21.887Z,73.70
2018-07-21T17:06:50.028Z,73.70
2018-07-21T17:09:18.194Z,73.90
2018-07-21T17:11:46.314Z,73.90
2018-07-21T17:14:14.450Z,75.00
2018-07-21T17:16:42.553Z,74.60
2018-07-21T17:19:10.783Z,74.80
2018-07-21T17:21:38.803Z,74.60
2018-07-21T17:24:06.949Z,74.60
2018-07-21T17:26:35.067Z,74.70
2018-07-21T17:29:03.231Z,74.30
2018-07-21T17:31:31.550Z,74.20
2018-07-21T17:34:07.253Z,74.40
2018-07-21T17:36:35.394Z,74.70
2018-07-21T17:39:04.641Z,74.60
2018-07-21T17:41:33.024Z,74.30
2018-07-21T17:44:01.122Z,74.70
2018-07-21T17:46:29.230Z,75.00
2018-07-21T17:48:57.330Z,74.60
2018-07-21T17:51:25.479Z,74.80
2018-07-21T17:53:53.588Z,74.60
2018-07-21T17:56:22.197Z,74.20
2018-07-21T17:58:50.377Z,74.30
2018-07-21T18:01:18.777Z,73.90
2018-07-21T18:03:46.883Z,74.00
2018-07-21T18:06:15.007Z,74.00
2018-07-21T18:08:43.131Z,73.90
2018-07-21T18:11:11.263Z,73.70
2018-07-21T18:13:39.422Z,74.60
2018-07-21T18:16:07.569Z,73.60
2018-07-21T18:18:35.661Z,73.70
2018-07-21T18:21:03.774Z,74.00
2018-07-21T18:23:31.871Z,74.20
2018-07-21T18:25:59.984Z,74.00
2018-07-21T18:28:28.129Z,73.80
2018-07-21T18:30:56.257Z,74.10
2018-07-21T18:33:24.440Z,74.70
2018-07-21T18:35:52.550Z,74.20
2018-07-21T18:38:20.640Z,74.30
2018-07-21T18:40:48.751Z,74.20
2018-07-21T18:43:16.834Z,75.10
2018-07-21T18:45:44.931Z,74.90
2018-07-21T18:48:13.047Z,75.00
2018-07-21T18:50:41.156Z,75.50
2018-07-21T18:53:09.263Z,75.40
2018-07-21T18:55:37.415Z,75.50
2018-07-21T18:58:05.516Z,75.70
2018-07-21T19:00:33.649Z,75.40
2018-07-21T19:03:01.759Z,75.10
2018-07-21T19:05:29.911Z,74.80
2018-07-21T19:07:58.065Z,75.20
2018-07-21T19:10:27.157Z,74.80
2018-07-21T19:12:55.336Z,75.20
2018-07-21T19:15:29.022Z,75.30
2018-07-21T19:17:57.158Z,75.60
2018-07-21T19:21:34.436Z,75.90
2018-07-21T19:24:02.521Z,75.90
2018-07-21T19:26:36.190Z,75.80
2018-07-21T19:29:04.320Z,76.10
2018-07-21T19:31:32.449Z,76.50
2018-07-21T19:34:00.546Z,76.00
2018-07-21T19:36:28.703Z,76.20
2018-07-21T19:38:56.910Z,76.70
2018-07-21T19:41:30.469Z,77.20
2018-07-21T19:43:58.711Z,78.10
2018-07-21T19:46:28.014Z,77.50
2018-07-21T19:48:56.138Z,78.00
2018-07-21T19:51:24.290Z,78.90
2018-07-21T19:53:52.411Z,79.40
2018-07-21T19:58:48.436Z,80.00
2018-07-21T20:01:16.568Z,79.70
2018-07-21T20:03:44.690Z,80.10
2018-07-21T20:06:12.820Z,80.40
2018-07-21T20:08:41.006Z,80.10
2018-07-21T20:11:09.127Z,79.80
2018-07-21T20:16:05.373Z,80.60
2018-07-21T20:18:33.549Z,80.60
2018-07-21T20:21:01.746Z,80.80
2018-07-21T20:23:29.787Z,81.70
2018-07-21T20:25:57.903Z,81.70
2018-07-21T20:28:26.010Z,81.80
2018-07-21T20:30:54.143Z,82.60
2018-07-21T20:33:22.248Z,82.60
2018-07-21T20:35:50.378Z,83.10
2018-07-21T20:38:18.557Z,83.00
2018-07-21T20:40:46.742Z,82.90
2018-07-21T20:43:14.810Z,82.50
2018-07-21T20:45:42.953Z,83.30
2018-07-21T20:48:11.056Z,84.00
2018-07-21T20:50:39.221Z,84.30
2018-07-21T20:53:07.352Z,84.30
2018-07-21T20:55:35.510Z,84.70
2018-07-21T20:58:03.623Z,84.90
2018-07-21T21:00:32.347Z,85.10
2018-07-21T21:03:00.802Z,85.30
2018-07-21T21:05:28.915Z,86.10
2018-07-21T21:07:57.043Z,86.80
2018-07-21T21:10:25.217Z,86.80
2018-07-21T21:12:53.716Z,87.00
2018-07-21T21:15:21.868Z,87.30
2018-07-21T21:17:49.980Z,87.70
2018-07-21T21:20:18.088Z,88.20
2018-07-21T21:22:46.274Z,88.60
2018-07-21T21:25:14.654Z,88.60
2018-07-21T21:27:43.520Z,88.00
2018-07-21T21:30:11.634Z,88.30
2018-07-21T21:32:39.830Z,88.70
2018-07-21T21:35:08.319Z,88.50
2018-07-21T21:40:04.683Z,88.60
2018-07-21T21:42:32.808Z,88.60
2018-07-21T21:45:01.023Z,88.90
2018-07-21T21:49:57.430Z,89.00
2018-07-21T21:52:25.567Z,88.60
2018-07-21T21:54:53.654Z,88.80
2018-07-21T21:57:21.777Z,88.80
2018-07-21T21:59:51.699Z,89.00
2018-07-21T22:02:19.836Z,89.20
2018-07-21T22:04:47.997Z,90.10
2018-07-21T22:07:16.124Z,90.00
2018-07-21T22:09:44.206Z,90.10
2018-07-21T22:14:40.204Z,90.20
2018-07-21T22:17:08.338Z,90.10
2018-07-21T22:19:36.454Z,90.00
2018-07-21T22:22:04.902Z,90.00
2018-07-21T22:24:33.055Z,90.10
2018-07-21T22:27:01.203Z,90.20
2018-07-21T22:29:29.348Z,90.40
2018-07-21T22:31:58.095Z,90.50
2018-07-21T22:36:54.220Z,90.40
2018-07-21T22:39:22.338Z,90.40
2018-07-21T22:41:50.458Z,90.50
2018-07-21T22:44:18.618Z,90.70
2018-07-21T22:46:46.757Z,90.80
2018-07-21T22:49:14.868Z,91.10
2018-07-21T22:51:43.144Z,91.20
2018-07-21T22:54:11.327Z,91.30
2018-07-21T22:56:39.472Z,91.40
2018-07-21T22:59:07.814Z,91.40
2018-07-21T23:01:35.933Z,91.50
2018-07-21T23:04:04.067Z,91.60
2018-07-21T23:06:32.191Z,91.60
2018-07-21T23:09:00.456Z,91.70
2018-07-21T23:11:28.655Z,91.90
2018-07-21T23:13:56.929Z,91.80
2018-07-21T23:16:25.046Z,92.10
2018-07-21T23:18:53.204Z,92.40
2018-07-21T23:21:21.298Z,92.50
2018-07-21T23:23:49.417Z,93.20
2018-07-21T23:26:17.542Z,93.70
2018-07-21T23:28:45.837Z,94.00
2018-07-21T23:31:13.973Z,94.20
2018-07-21T23:33:42.099Z,94.60
2018-07-21T23:36:10.212Z,95.10
2018-07-21T23:38:38.346Z,95.60
2018-07-21T23:41:06.985Z,95.80
2018-07-21T23:43:35.156Z,95.30
2018-07-21T23:46:03.284Z,95.40
2018-07-21T23:48:31.391Z,95.60
2018-07-21T23:50:59.515Z,95.70
2018-07-21T23:53:27.614Z,95.90
2018-07-21T23:55:55.738Z,95.90
2018-07-21T23:58:23.860Z,95.70
